x

Thomas Point, Md (tplm2) Weather Station

5:00am - Wed 29th Jun 2016 All times are EDT. -4 hours from GMT.

  • Wind
    5mph, 6mph gusts
  • Sea Temp 76°f
  • Air Temp 69°f
  • Sea Pressure 1013.3mb
  • Thomas Point, Md
  • Thomas Point, Md

More Historic Weather Station data

Upgrade to MSW Pro to gain access to the past 30 days of data for over 8000 Wavebouys and Weather Stations around the globe.

Join Pro

Comparision Forecast

View Surf forecast
   
Wed 06/29 5:00am 5 6 mph 1013.3mb 76f 69f
4:00am 5 6 mph 1013.1mb 76f 70f
3:00am 9 10 mph 1013mb 76f 70f
2:00am 16 18 mph 1012.5mb 76f 70f
1:00am 11 14 mph 1012.8mb 75f 71f
12:00am 11 14 mph 1013.2mb 75f 71f
Tue 06/28 11:00pm 18 21 mph 1013.2mb 75f 72f
10:00pm 18 20 mph 1014.3mb 75f 73f
9:00pm 18 21 mph 1011.9mb 76f 75f
8:00pm 7 13 mph 1013.3mb 76f 72f
7:00pm 8 10 mph 1012.9mb 76f 77f
6:00pm 16 18 mph 1012.3mb 76f 76f
5:00pm 18 20 mph 1012.3mb 76f 76f
4:00pm 15 16 mph 1012.8mb 77f 76f
3:00pm 11 13 mph 1013.6mb 76f 76f
2:00pm 11 13 mph 1014mb 76f 76f
1:00pm 7 8 mph 1014.6mb 76f 76f
12:00pm 6 7 mph 1014.9mb 76f 75f
11:00am 8 9 mph 1015mb 75f 75f
10:00am 11
mph
1015mb 74f 75f
9:00am 9 10 mph 1015.2mb 75f 75f
8:00am 10 11 mph 1015mb 75f 75f
7:00am 14 16 mph 1015mb 75f 75f
6:00am 13 14 mph 1014.7mb 76f 74f
5:00am 13 14 mph 1014.3mb 76f 74f
4:00am 15 16 mph 1014.5mb 75f 74f
3:00am 17 18 mph 1014.7mb 75f 73f
2:00am 8 9 mph 1015.5mb 75f 73f
1:00am 15 17 mph 1016mb 75f 76f
12:00am 23 25 mph 1015.5mb 76f 77f
Mon 06/27 11:00pm 20 22 mph 1016mb 76f 77f
10:00pm 22 25 mph 1016.3mb 76f 77f
9:00pm 18 20 mph 1016mb 76f 78f
8:00pm 17 18 mph 1016.1mb 76f 78f
7:00pm 18 20 mph 1016.3mb 76f 78f
6:00pm 14 16 mph 1016.1mb 76f 78f
5:00pm 16 17 mph 1015.9mb 76f 78f
4:00pm 16 18 mph 1016.6mb 76f 78f
3:00pm 16 18 mph 1017.3mb 76f 78f
2:00pm 15 17 mph 1018mb 76f 77f
1:00pm 15 16 mph 1018.7mb 76f 76f
12:00pm 15 16 mph 1019.4mb 76f 74f
11:00am 14 15 mph 1019.7mb 75f 73f
10:00am 13
mph
1020.4mb 75f 72f
9:00am 10 13 mph 1021mb 75f 71f
8:00am 15 16 mph 1020.3mb 75f 70f
7:00am 14 16 mph 1020.5mb 75f 71f
6:00am 13 14 mph 1020.8mb 75f 70f
5:00am 14 17 mph 1020.8mb 76f 71f
4:00am 13 15 mph 1020.9mb 76f 72f
3:00am 14 15 mph 1021.3mb 75f 72f
2:00am 15 17 mph 1022mb 76f 73f
1:00am 16 17 mph 1022.4mb 76f 74f
12:00am 15 17 mph 1022.2mb 76f 74f
Sun 06/26 11:00pm 17 18 mph 1021.8mb 76f 75f
10:00pm 20
mph
1021.3mb 76f 76f
9:00pm 18 21 mph 1020.8mb 77f 76f
8:00pm 10 11 mph 1021.6mb 76f 78f
7:00pm 5 6 mph 1022.1mb 77f 78f
6:00pm 5 6 mph 1022.4mb 77f 79f
5:00pm 7 8 mph 1023.1mb 78f 78f
4:00pm 7 8 mph 1023.3mb 77f 77f
3:00pm 5 6 mph 1024.2mb 77f 76f
2:00pm 5 6 mph 1024.9mb 77f 75f
1:00pm 5 6 mph 1025.2mb 76f 74f
12:00pm 3 5 mph 1025.5mb 76f 73f
11:00am 2 3 mph 1025.1mb 75f 72f
10:00am 1 2 mph 1024.9mb 75f 72f
9:00am 5 6 mph 1024.9mb 75f 71f
8:00am 8 9 mph 1024.5mb 75f 70f
7:00am  -  mph 1024.7mb 75f 72f
6:00am 3
mph
1024.9mb 75f 70f
5:00am  -  1 mph 1024.9mb 75f 71f
4:00am 2
mph
1024.8mb 76f 72f
3:00am 6 7 mph 1023.9mb 76f 72f
2:00am 8
mph
1023.7mb 75f 73f
1:00am 11 13 mph 1023.8mb 75f 74f
12:00am 11 13 mph 1023.9mb 75f 75f
Sat 06/25 11:00pm 9 11 mph 1024mb 76f 75f
10:00pm 10 11 mph 1023.8mb 76f 76f
9:00pm 3 5 mph 1023.7mb 76f 77f
8:00pm  -  mph 1023.1mb 76f 79f
7:00pm 2
mph
1023.1mb 76f 78f
6:00pm 5 6 mph 1023mb 76f 78f
5:00pm 6
mph
1022.8mb 77f 77f
4:00pm 7 8 mph 1023mb 76f 76f
3:00pm 10
mph
1023.3mb 76f 76f
2:00pm 9 10 mph 1023.3mb 76f 74f
1:00pm 8 9 mph 1023.4mb 76f 73f
12:00pm 9 10 mph 1023.8mb 76f 71f
11:00am 10 11 mph 1023.8mb 75f 70f